createdAt,value
2018-07-23T00:01:04.397Z,20.70
2018-07-23T00:03:31.961Z,20.70
2018-07-23T00:05:59.601Z,20.70
2018-07-23T00:08:27.267Z,20.60
2018-07-23T00:10:54.902Z,20.60
2018-07-23T00:13:22.508Z,20.60
2018-07-23T00:15:50.181Z,20.60
2018-07-23T00:18:17.786Z,20.60
2018-07-23T00:20:45.448Z,20.50
2018-07-23T00:23:13.054Z,20.50
2018-07-23T00:25:40.774Z,20.50
2018-07-23T00:28:08.405Z,20.50
2018-07-23T00:30:36.022Z,20.40
2018-07-23T00:33:03.648Z,20.40
2018-07-23T00:35:31.951Z,20.40
2018-07-23T00:37:59.635Z,20.40
2018-07-23T00:40:27.235Z,20.30
2018-07-23T00:42:54.851Z,20.30
2018-07-23T00:45:22.493Z,20.30
2018-07-23T00:47:50.106Z,20.30
2018-07-23T00:50:17.704Z,20.20
2018-07-23T00:52:45.364Z,20.20
2018-07-23T00:55:13.059Z,20.20
2018-07-23T00:57:40.662Z,20.20
2018-07-23T01:00:08.602Z,20.10
2018-07-23T01:02:36.290Z,20.10
2018-07-23T01:05:03.914Z,20.10
2018-07-23T01:07:31.612Z,20.10
2018-07-23T01:09:59.243Z,20.10
2018-07-23T01:12:30.646Z,20.10
2018-07-23T01:14:58.242Z,20.10
2018-07-23T01:19:55.654Z,20.10
2018-07-23T01:22:24.445Z,20.00
2018-07-23T01:24:52.710Z,20.10
2018-07-23T01:27:20.312Z,20.20
2018-07-23T01:29:48.154Z,20.10
2018-07-23T01:32:16.166Z,20.20
2018-07-23T01:34:44.090Z,20.20
2018-07-23T01:37:11.758Z,20.30
2018-07-23T01:39:39.486Z,20.30
2018-07-23T01:42:07.216Z,20.30
2018-07-23T01:44:38.231Z,20.30
2018-07-23T01:47:07.000Z,20.30
2018-07-23T01:49:34.772Z,20.30
2018-07-23T01:52:02.459Z,20.30
2018-07-23T01:54:30.170Z,20.30
2018-07-23T01:56:57.844Z,20.30
2018-07-23T01:59:25.550Z,20.20
2018-07-23T02:01:53.202Z,20.20
2018-07-23T02:04:20.866Z,20.20
2018-07-23T02:06:48.549Z,20.10
2018-07-23T02:09:17.016Z,20.10
2018-07-23T02:11:44.701Z,20.00
2018-07-23T02:14:12.333Z,19.90
2018-07-23T02:16:39.963Z,20.00
2018-07-23T02:19:07.610Z,20.00
2018-07-23T02:21:35.785Z,20.00
2018-07-23T02:24:03.977Z,20.00
2018-07-23T02:26:31.570Z,19.90
2018-07-23T02:28:59.264Z,20.00
2018-07-23T02:31:26.913Z,19.90
2018-07-23T02:33:54.569Z,19.90
2018-07-23T02:36:22.173Z,19.90
2018-07-23T02:38:49.865Z,19.80
2018-07-23T02:41:17.620Z,19.70
2018-07-23T02:43:45.369Z,19.70
2018-07-23T02:46:13.044Z,19.70
2018-07-23T02:48:40.697Z,19.70
2018-07-23T02:51:09.065Z,19.70
2018-07-23T02:53:36.720Z,19.60
2018-07-23T02:56:04.371Z,19.70
2018-07-23T02:58:32.010Z,19.60
2018-07-23T03:00:59.627Z,19.60
2018-07-23T03:03:27.261Z,19.60
2018-07-23T03:05:54.851Z,19.70
2018-07-23T03:08:22.476Z,19.70
2018-07-23T03:10:50.054Z,19.80
2018-07-23T03:13:17.706Z,19.80
2018-07-23T03:15:45.348Z,19.80
2018-07-23T03:18:12.972Z,19.80
2018-07-23T03:20:40.560Z,19.90
2018-07-23T03:23:08.258Z,20.00
2018-07-23T03:25:35.932Z,20.00
2018-07-23T03:28:03.581Z,20.00
2018-07-23T03:30:31.353Z,20.00
2018-07-23T03:32:59.048Z,20.00
2018-07-23T03:35:27.067Z,19.90
2018-07-23T03:37:54.730Z,20.00
2018-07-23T03:40:22.453Z,20.00
2018-07-23T03:42:50.123Z,20.00
2018-07-23T03:45:17.724Z,19.90
2018-07-23T03:47:45.377Z,19.90
2018-07-23T03:50:12.975Z,19.80
2018-07-23T03:52:40.600Z,19.80
2018-07-23T03:55:08.243Z,19.80
2018-07-23T03:57:35.884Z,19.80
2018-07-23T04:00:04.107Z,19.80
2018-07-23T04:02:31.723Z,19.80
2018-07-23T04:04:59.403Z,19.80
2018-07-23T04:07:27.086Z,19.80
2018-07-23T04:09:54.735Z,19.80
2018-07-23T04:12:22.310Z,19.80
2018-07-23T04:14:49.980Z,19.80
2018-07-23T04:17:18.666Z,19.80
2018-07-23T04:19:46.320Z,19.80
2018-07-23T04:22:13.984Z,19.80
2018-07-23T04:24:41.598Z,19.80
2018-07-23T04:27:09.220Z,19.80
2018-07-23T04:29:36.894Z,19.80
2018-07-23T04:32:04.586Z,19.80
2018-07-23T04:34:32.224Z,20.00
2018-07-23T04:39:27.423Z,20.10
2018-07-23T04:41:55.042Z,20.20
2018-07-23T04:44:22.653Z,20.30
2018-07-23T04:46:50.269Z,20.40
2018-07-23T04:49:17.965Z,20.40
2018-07-23T04:51:45.572Z,20.40
2018-07-23T04:54:13.287Z,20.40
2018-07-23T04:56:40.897Z,20.50
2018-07-23T04:59:08.503Z,20.50
2018-07-23T05:01:36.077Z,20.60
2018-07-23T05:04:03.892Z,20.80
2018-07-23T05:06:31.487Z,20.80
2018-07-23T05:08:59.084Z,20.80
2018-07-23T05:11:26.691Z,21.00
2018-07-23T05:13:54.343Z,21.10
2018-07-23T05:16:21.932Z,21.30
2018-07-23T05:18:49.526Z,21.30
2018-07-23T05:21:17.090Z,21.20
2018-07-23T05:23:44.737Z,21.10
2018-07-23T05:26:12.384Z,21.10
2018-07-23T05:28:39.930Z,21.20
2018-07-23T05:31:07.604Z,21.10
2018-07-23T05:33:35.205Z,21.10
2018-07-23T05:38:30.612Z,21.30
2018-07-23T05:40:58.271Z,21.30
2018-07-23T05:43:25.892Z,21.50
2018-07-23T05:45:53.526Z,21.70
2018-07-23T05:48:27.993Z,21.80
2018-07-23T05:50:55.638Z,22.10
2018-07-23T05:53:23.270Z,22.20
2018-07-23T05:55:50.883Z,22.40
2018-07-23T05:58:18.439Z,22.50
2018-07-23T06:00:46.063Z,22.50
2018-07-23T06:03:16.489Z,22.30
2018-07-23T06:05:44.149Z,22.40
2018-07-23T06:08:11.749Z,22.60
2018-07-23T06:10:39.603Z,22.60
2018-07-23T06:13:07.342Z,22.80
2018-07-23T06:15:34.988Z,22.60
2018-07-23T06:18:02.641Z,22.80
2018-07-23T06:20:30.253Z,23.00
2018-07-23T06:22:57.940Z,23.30
2018-07-23T06:25:25.547Z,23.20
2018-07-23T06:27:53.415Z,23.20
2018-07-23T06:30:21.095Z,23.20
2018-07-23T06:32:48.653Z,22.90
2018-07-23T06:35:16.328Z,23.00
2018-07-23T06:37:43.925Z,23.50
2018-07-23T06:40:11.498Z,23.70
2018-07-23T06:42:39.082Z,24.10
2018-07-23T06:45:06.679Z,24.20
2018-07-23T06:47:34.505Z,24.30
2018-07-23T06:50:02.510Z,24.20
2018-07-23T06:52:30.114Z,24.40
2018-07-23T06:54:59.039Z,24.50
2018-07-23T06:57:26.740Z,24.40
2018-07-23T06:59:54.333Z,24.30
2018-07-23T07:02:21.961Z,24.50
2018-07-23T07:04:49.573Z,24.70
2018-07-23T07:07:17.209Z,25.10
2018-07-23T07:09:44.834Z,25.10
2018-07-23T07:12:12.389Z,25.30
2018-07-23T07:14:39.961Z,25.30
2018-07-23T07:17:07.537Z,25.40
2018-07-23T07:19:35.164Z,25.60
2018-07-23T07:22:02.811Z,25.60
2018-07-23T07:24:30.411Z,25.70
2018-07-23T07:26:58.087Z,25.90
2018-07-23T07:29:25.752Z,25.80
2018-07-23T07:31:53.389Z,25.60
2018-07-23T07:34:21.010Z,25.40
2018-07-23T07:36:48.639Z,25.10
2018-07-23T07:39:16.259Z,24.90
2018-07-23T07:41:43.856Z,24.90
2018-07-23T07:44:11.461Z,25.00
2018-07-23T07:49:07.908Z,24.90
2018-07-23T07:51:35.555Z,25.00
2018-07-23T07:54:03.290Z,25.20
2018-07-23T07:56:31.636Z,25.30
2018-07-23T07:58:59.279Z,25.30
2018-07-23T08:01:26.870Z,25.30
2018-07-23T08:03:54.548Z,25.30
2018-07-23T08:06:22.210Z,25.30
2018-07-23T08:08:49.901Z,25.60
2018-07-23T08:11:17.556Z,25.80
2018-07-23T08:13:45.482Z,26.10
2018-07-23T08:16:13.130Z,26.60
2018-07-23T08:18:40.880Z,26.60
2018-07-23T08:21:08.526Z,26.50
2018-07-23T08:23:36.220Z,26.90
2018-07-23T08:26:04.124Z,27.00
2018-07-23T08:28:31.784Z,27.10
2018-07-23T08:30:59.475Z,27.30
2018-07-23T08:33:27.089Z,27.40
2018-07-23T08:35:54.747Z,27.20
2018-07-23T08:38:22.439Z,27.10
2018-07-23T08:40:50.128Z,27.30
2018-07-23T08:45:45.631Z,26.90
2018-07-23T08:48:13.252Z,26.80
2018-07-23T08:50:40.888Z,27.00
2018-07-23T08:53:08.674Z,27.20
2018-07-23T08:55:36.372Z,27.50
2018-07-23T08:58:04.044Z,27.60
2018-07-23T09:00:31.681Z,27.50
2018-07-23T09:02:59.360Z,27.40
2018-07-23T09:05:26.984Z,27.10
2018-07-23T09:07:54.668Z,27.10
2018-07-23T09:10:22.346Z,26.90
2018-07-23T09:12:50.017Z,27.10
2018-07-23T09:15:17.674Z,27.20
2018-07-23T09:17:45.314Z,27.20
2018-07-23T09:20:12.962Z,27.30
2018-07-23T09:22:40.567Z,27.40
2018-07-23T09:25:09.204Z,27.40
2018-07-23T09:27:39.281Z,27.40
2018-07-23T09:30:11.594Z,27.50
2018-07-23T09:32:39.249Z,27.70
2018-07-23T09:35:06.888Z,28.00
2018-07-23T09:37:35.032Z,28.10
2018-07-23T09:40:02.689Z,28.00
2018-07-23T09:42:30.480Z,28.00
2018-07-23T09:44:58.158Z,28.10
2018-07-23T09:47:25.782Z,28.30
2018-07-23T09:49:53.411Z,28.30
2018-07-23T09:52:21.067Z,28.40
2018-07-23T09:54:48.690Z,28.40
2018-07-23T09:59:50.506Z,28.20
2018-07-23T10:02:18.068Z,28.00
2018-07-23T10:04:45.662Z,27.90
2018-07-23T10:07:13.248Z,27.70
2018-07-23T10:09:40.912Z,27.70
2018-07-23T10:12:08.571Z,27.80
2018-07-23T10:14:36.212Z,27.90
2018-07-23T10:17:03.852Z,27.90
2018-07-23T10:19:31.453Z,27.80
2018-07-23T10:21:59.155Z,27.80
2018-07-23T10:24:26.891Z,27.80
2018-07-23T10:26:54.468Z,27.50
2018-07-23T10:29:22.003Z,27.60
2018-07-23T10:31:49.615Z,27.60
2018-07-23T10:34:17.191Z,27.70
2018-07-23T10:36:44.844Z,27.70
2018-07-23T10:39:12.540Z,27.70
2018-07-23T10:41:40.245Z,27.80
2018-07-23T10:44:07.892Z,27.90
2018-07-23T10:46:35.488Z,28.00
2018-07-23T10:49:03.136Z,28.20
2018-07-23T10:51:30.781Z,28.40
2018-07-23T10:53:58.563Z,28.30
2018-07-23T10:56:26.316Z,28.40
2018-07-23T10:58:53.940Z,28.30
2018-07-23T11:01:21.570Z,28.40
2018-07-23T11:03:49.228Z,28.40
2018-07-23T11:06:16.809Z,28.20
2018-07-23T11:08:44.369Z,28.30
2018-07-23T11:11:11.928Z,28.40
2018-07-23T11:13:39.549Z,28.40
2018-07-23T11:16:07.133Z,28.20
2018-07-23T11:18:34.777Z,28.30
2018-07-23T11:21:02.458Z,28.30
2018-07-23T11:23:30.090Z,28.30
2018-07-23T11:25:57.649Z,28.10
2018-07-23T11:28:25.271Z,27.90
2018-07-23T11:30:52.877Z,28.00
2018-07-23T11:33:20.497Z,27.90
2018-07-23T11:35:48.075Z,28.00
2018-07-23T11:38:15.676Z,28.20
2018-07-23T11:40:43.259Z,28.50
2018-07-23T11:43:10.834Z,28.70
2018-07-23T11:45:38.441Z,28.90
2018-07-23T11:48:06.015Z,29.10
2018-07-23T11:50:33.691Z,29.30
2018-07-23T11:53:01.288Z,29.50
2018-07-23T11:55:28.810Z,29.40
2018-07-23T11:57:56.428Z,29.40
2018-07-23T12:00:23.980Z,29.50
2018-07-23T12:02:51.578Z,29.70
2018-07-23T12:05:19.154Z,30.00
2018-07-23T12:07:46.750Z,30.20
2018-07-23T12:10:14.306Z,30.30
2018-07-23T12:12:42.316Z,30.10
2018-07-23T12:15:10.082Z,30.10
2018-07-23T12:17:37.850Z,30.20
2018-07-23T12:20:05.736Z,30.10
2018-07-23T12:22:33.342Z,30.00
2018-07-23T12:25:01.102Z,30.00
2018-07-23T12:27:28.675Z,30.20
2018-07-23T12:29:56.397Z,30.50
2018-07-23T12:32:23.950Z,30.50
2018-07-23T12:34:51.593Z,30.60
2018-07-23T12:37:19.213Z,30.70
2018-07-23T12:39:46.881Z,31.00
2018-07-23T12:42:14.425Z,31.10
2018-07-23T12:44:42.012Z,31.00
2018-07-23T12:47:09.699Z,30.60
2018-07-23T12:49:37.312Z,30.50
2018-07-23T12:52:04.896Z,30.50
2018-07-23T12:54:32.453Z,30.50
2018-07-23T12:57:00.043Z,30.70
2018-07-23T13:01:55.281Z,31.40
2018-07-23T13:04:22.952Z,31.60
2018-07-23T13:06:50.569Z,31.50
2018-07-23T13:09:18.167Z,31.30
2018-07-23T13:11:45.709Z,31.30
2018-07-23T13:14:13.381Z,31.60
2018-07-23T13:16:40.944Z,31.90
2018-07-23T13:19:08.579Z,32.10
2018-07-23T13:21:36.103Z,31.60
2018-07-23T13:24:03.718Z,31.00
2018-07-23T13:28:59.691Z,30.60
2018-07-23T13:31:27.367Z,30.90
2018-07-23T13:33:54.961Z,31.20
2018-07-23T13:36:22.872Z,31.50
2018-07-23T13:38:50.496Z,31.70
2018-07-23T13:41:18.071Z,31.60
2018-07-23T13:43:45.664Z,31.60
2018-07-23T13:46:13.394Z,31.00
2018-07-23T13:48:41.042Z,30.80
2018-07-23T13:51:08.608Z,30.60
2018-07-23T13:53:36.241Z,30.30
2018-07-23T13:56:03.849Z,31.10
2018-07-23T13:58:31.480Z,31.70
2018-07-23T14:00:59.049Z,32.30
2018-07-23T14:03:26.628Z,32.60
2018-07-23T14:05:54.349Z,32.60
2018-07-23T14:08:21.947Z,32.70
2018-07-23T14:13:17.241Z,32.10
2018-07-23T14:15:44.806Z,32.40
2018-07-23T14:18:12.394Z,32.70
2018-07-23T14:20:40.021Z,33.00
2018-07-23T14:23:07.685Z,33.10
2018-07-23T14:25:35.354Z,33.10
2018-07-23T14:28:03.010Z,33.60
2018-07-23T14:30:30.703Z,33.60
2018-07-23T14:32:58.276Z,33.60
2018-07-23T14:35:25.904Z,33.80
2018-07-23T14:37:53.443Z,34.20
2018-07-23T14:40:21.046Z,34.60
2018-07-23T14:42:48.646Z,34.80
2018-07-23T14:45:16.313Z,35.40
2018-07-23T14:47:43.945Z,35.60
2018-07-23T14:50:11.551Z,35.40
2018-07-23T14:52:39.280Z,35.10
2018-07-23T14:55:06.915Z,35.40
2018-07-23T14:57:34.644Z,34.30
2018-07-23T15:00:02.282Z,34.10
2018-07-23T15:02:29.899Z,34.10
2018-07-23T15:04:57.607Z,34.10
2018-07-23T15:07:25.315Z,34.60
2018-07-23T15:09:52.950Z,35.10
2018-07-23T15:12:20.630Z,35.10
2018-07-23T15:14:48.233Z,34.80
2018-07-23T15:17:15.924Z,34.90
2018-07-23T15:19:43.508Z,34.80
2018-07-23T15:22:11.269Z,34.40
2018-07-23T15:24:38.852Z,34.30
2018-07-23T15:27:06.738Z,34.20
2018-07-23T15:29:34.494Z,34.40
2018-07-23T15:32:02.354Z,34.70
2018-07-23T15:34:30.170Z,34.80
2018-07-23T15:36:57.938Z,35.00
2018-07-23T15:39:25.586Z,34.60
2018-07-23T15:41:53.433Z,35.00
2018-07-23T15:44:21.303Z,35.10
2018-07-23T15:46:48.826Z,35.20
2018-07-23T15:49:16.530Z,35.20
2018-07-23T15:51:44.519Z,35.00
2018-07-23T15:54:12.104Z,35.20
2018-07-23T15:56:39.799Z,35.30
2018-07-23T15:59:07.437Z,35.70
2018-07-23T16:01:35.033Z,35.90
2018-07-23T16:04:02.705Z,35.70
2018-07-23T16:06:30.289Z,35.20
2018-07-23T16:08:57.946Z,35.10
2018-07-23T16:11:25.609Z,34.90
2018-07-23T16:13:53.279Z,34.30
2018-07-23T16:16:21.093Z,34.60
2018-07-23T16:18:48.746Z,34.50
2018-07-23T16:21:16.365Z,34.90
2018-07-23T16:23:43.918Z,35.00
2018-07-23T16:28:39.214Z,35.30
2018-07-23T16:31:06.797Z,35.30
2018-07-23T16:33:34.696Z,35.60
2018-07-23T16:36:02.321Z,35.30
2018-07-23T16:38:29.873Z,34.90
2018-07-23T16:40:57.479Z,34.70
2018-07-23T16:43:25.139Z,34.70
2018-07-23T16:45:52.719Z,35.00
2018-07-23T16:48:20.405Z,35.00
2018-07-23T16:50:48.060Z,34.70
2018-07-23T16:53:15.708Z,35.00
2018-07-23T16:55:43.242Z,35.10
2018-07-23T16:58:10.890Z,35.20
2018-07-23T17:00:38.551Z,35.20
2018-07-23T17:03:06.142Z,35.00
2018-07-23T17:05:34.613Z,34.60
2018-07-23T17:08:02.212Z,34.60
2018-07-23T17:10:29.822Z,34.10
2018-07-23T17:12:57.494Z,34.30
2018-07-23T17:15:25.098Z,34.10
2018-07-23T17:17:52.939Z,34.20
2018-07-23T17:20:20.549Z,34.30
2018-07-23T17:22:48.157Z,34.20
2018-07-23T17:25:15.795Z,33.90
2018-07-23T17:27:43.356Z,33.40
2018-07-23T17:30:10.984Z,33.60
2018-07-23T17:32:38.591Z,33.70
2018-07-23T17:35:06.153Z,34.00
2018-07-23T17:37:33.772Z,34.20
2018-07-23T17:40:01.383Z,34.20
2018-07-23T17:42:29.089Z,34.10
2018-07-23T17:44:56.684Z,34.00
2018-07-23T17:47:24.389Z,33.70
2018-07-23T17:49:52.066Z,33.30
2018-07-23T17:52:19.946Z,33.30
2018-07-23T17:54:47.592Z,33.10
2018-07-23T17:57:15.216Z,33.00
2018-07-23T17:59:42.846Z,33.00
2018-07-23T18:02:10.520Z,33.00
2018-07-23T18:07:05.924Z,33.00
2018-07-23T18:09:33.592Z,33.10
2018-07-23T18:12:01.216Z,33.10
2018-07-23T18:14:29.198Z,33.10
2018-07-23T18:16:56.860Z,33.00
2018-07-23T18:19:24.808Z,32.60
2018-07-23T18:21:53.344Z,32.40
2018-07-23T18:24:21.069Z,32.00
2018-07-23T18:26:48.742Z,31.80
2018-07-23T18:29:21.070Z,31.50
2018-07-23T18:31:48.740Z,31.20
2018-07-23T18:34:16.426Z,31.00
2018-07-23T18:36:44.070Z,30.70
2018-07-23T18:39:12.349Z,30.40
2018-07-23T18:41:40.506Z,30.10
2018-07-23T18:44:08.575Z,29.90
2018-07-23T18:46:36.368Z,29.80
2018-07-23T18:49:33.319Z,29.70
2018-07-23T18:52:01.031Z,29.60
2018-07-23T18:54:29.760Z,29.40
2018-07-23T18:56:59.600Z,29.20
2018-07-23T18:59:27.218Z,29.10
2018-07-23T19:01:56.061Z,29.00
2018-07-23T19:04:23.725Z,28.80
2018-07-23T19:06:51.372Z,28.70
2018-07-23T19:09:20.244Z,28.50
2018-07-23T19:11:49.112Z,28.40
2018-07-23T19:14:17.190Z,28.40
2018-07-23T19:16:45.352Z,28.30
2018-07-23T19:19:13.048Z,28.10
2018-07-23T19:21:40.682Z,28.00
2018-07-23T19:24:08.331Z,27.90
2018-07-23T19:26:35.994Z,27.70
2018-07-23T19:29:03.646Z,27.60
2018-07-23T19:31:31.336Z,27.50
2018-07-23T19:34:00.246Z,27.40
2018-07-23T19:36:28.084Z,27.20
2018-07-23T19:38:56.034Z,27.10
2018-07-23T19:41:24.692Z,27.00
2018-07-23T19:43:52.631Z,26.90
2018-07-23T19:46:22.656Z,26.80
2018-07-23T19:48:50.258Z,26.70
2018-07-23T19:51:17.840Z,26.50
2018-07-23T19:53:45.460Z,26.50
2018-07-23T19:56:13.198Z,26.40
2018-07-23T19:58:41.507Z,26.20
2018-07-23T20:01:09.424Z,26.10
2018-07-23T20:03:37.074Z,26.10
2018-07-23T20:06:04.978Z,26.00
2018-07-23T20:08:32.765Z,25.90
2018-07-23T20:11:00.586Z,25.80
2018-07-23T20:13:28.379Z,25.80
2018-07-23T20:15:56.761Z,25.80
2018-07-23T20:18:24.583Z,25.70
2018-07-23T20:20:52.319Z,25.70
2018-07-23T20:23:20.040Z,25.60
2018-07-23T20:25:47.799Z,25.60
2018-07-23T20:28:15.583Z,25.50
2018-07-23T20:30:43.503Z,25.50
2018-07-23T20:33:11.266Z,25.40
2018-07-23T20:35:38.890Z,25.40
2018-07-23T20:38:06.599Z,25.30
2018-07-23T20:40:34.324Z,25.30
2018-07-23T20:43:01.987Z,25.20
2018-07-23T20:45:29.649Z,25.20
2018-07-23T20:47:57.712Z,25.10
2018-07-23T20:50:25.587Z,25.10
2018-07-23T20:52:53.192Z,25.10
2018-07-23T20:55:20.786Z,25.10
2018-07-23T20:57:48.428Z,25.00
2018-07-23T21:00:16.218Z,24.90
2018-07-23T21:02:43.738Z,24.80
2018-07-23T21:05:11.330Z,24.70
2018-07-23T21:07:38.962Z,24.70
2018-07-23T21:10:06.626Z,24.50
2018-07-23T21:12:34.241Z,24.50
2018-07-23T21:15:01.792Z,24.50
2018-07-23T21:17:29.405Z,24.40
2018-07-23T21:19:56.963Z,24.40
2018-07-23T21:22:24.609Z,24.30
2018-07-23T21:24:52.193Z,24.20
2018-07-23T21:27:19.792Z,24.20
2018-07-23T21:29:47.394Z,24.20
2018-07-23T21:32:15.249Z,24.10
2018-07-23T21:34:42.788Z,24.10
2018-07-23T21:37:10.412Z,24.00
2018-07-23T21:39:38.061Z,23.90
2018-07-23T21:42:05.921Z,23.80
2018-07-23T21:44:33.500Z,23.80
2018-07-23T21:47:01.108Z,23.80
2018-07-23T21:49:28.821Z,23.80
2018-07-23T21:51:56.562Z,23.80
2018-07-23T21:54:24.080Z,23.80
2018-07-23T21:56:51.682Z,23.60
2018-07-23T21:59:19.288Z,23.60
2018-07-23T22:01:46.910Z,23.60
2018-07-23T22:04:14.509Z,23.60
2018-07-23T22:06:42.116Z,23.50
2018-07-23T22:09:09.774Z,23.50
2018-07-23T22:11:37.476Z,23.40
2018-07-23T22:14:06.280Z,23.30
2018-07-23T22:16:33.842Z,23.20
2018-07-23T22:19:01.385Z,23.20
2018-07-23T22:23:56.522Z,23.00
2018-07-23T22:26:24.091Z,22.80
2018-07-23T22:28:51.651Z,22.80
2018-07-23T22:31:19.278Z,22.80
2018-07-23T22:33:46.969Z,22.70
2018-07-23T22:36:14.480Z,22.60
2018-07-23T22:38:41.974Z,22.50
2018-07-23T22:41:09.566Z,22.30
2018-07-23T22:43:37.200Z,22.20
2018-07-23T22:46:04.780Z,22.10
2018-07-23T22:48:32.539Z,22.00
2018-07-23T22:51:00.390Z,21.80
2018-07-23T22:53:27.958Z,21.70
2018-07-23T22:55:55.437Z,21.60
2018-07-23T22:58:23.000Z,21.50
2018-07-23T23:00:50.549Z,21.30
2018-07-23T23:03:18.095Z,21.30
2018-07-23T23:05:45.664Z,21.30
2018-07-23T23:08:13.165Z,21.20
2018-07-23T23:10:40.885Z,21.20
2018-07-23T23:13:08.417Z,21.20
2018-07-23T23:15:35.945Z,21.10
2018-07-23T23:18:03.489Z,21.10
2018-07-23T23:20:31.075Z,21.10
2018-07-23T23:22:58.950Z,21.10
2018-07-23T23:25:26.544Z,21.10
2018-07-23T23:27:54.104Z,21.10
2018-07-23T23:30:21.705Z,21.00
2018-07-23T23:32:49.304Z,20.90
2018-07-23T23:35:16.845Z,20.90
2018-07-23T23:37:44.348Z,20.90
2018-07-23T23:40:11.949Z,20.90
2018-07-23T23:42:39.474Z,20.90
2018-07-23T23:45:07.028Z,20.90
2018-07-23T23:47:34.554Z,20.90
2018-07-23T23:50:02.159Z,20.80
2018-07-23T23:52:29.737Z,20.70
2018-07-23T23:54:57.291Z,20.80
2018-07-23T23:57:24.875Z,20.80
2018-07-23T23:59:52.521Z,20.90
